Kobuk Valley National Park, AK

4:31 PM AKDT on August 02, 2015 (GMT -0800)
Baker Memorial | | Change Station
CLOSE
Current Station
Airport
Location: Kiana,
Elevation: 151 ft
Nearby Weather Stations

Elev 151 ft 66.98 °N, 160.44 °W | Updated 30 minutes ago

Overcast
Overcast
65 °F
Feels Like 65 °F
N
4
Wind Variable Wind from Variable

Today
High -- | Low -- °F
--% Chance of Precip.
Yesterday
High -- | Low -- °F
Precip. -- in
5:09 AM 0:22 AM
Waning Gibbous, 91% visible
Pressure 30.17 in
Visibility 10.0 miles
Clouds Overcast 3000 ft
Dew Point 51 °F
Humidity 61%
Rainfall 0.00 in
Snow Depth Not available.
UV 2 out of 12
Pollen Not available.
Air Quality Not available.
Flu Activity Not available.
METAR PAIK 030001Z AUTO VRB03KT 10SM OVC030 18/11 A3005 RMK AO2 SLP215 6//// T01830106 10183 20128 55000 PNO $

More Conditions Fewer Conditions

Pressure 30.17 in
Visibility 10.0 miles
Clouds Overcast 3000 ft
Dew Point 51 °F
Humidity 61%
Rainfall 0.00 in
Snow Depth Not available.
UV 2 out of 12
Pollen Not available.
Air Quality Not available.
Flu Activity Not available.
METAR PAIK 030001Z AUTO VRB03KT 10SM OVC030 18/11 A3005 RMK AO2 SLP215 6//// T01830106 10183 20128 55000 PNO $

More Conditions Fewer Conditions

10-Day Weather Forecast

×

Almanac

Astronomy

Aug. 02, 2015 Rise Set
Actual Time
Civil Twilight
Nautical Twilight
Astronomical Twilight
Moon
Length of Visible Light
Length of Day
Tomorrow will be .
, % of the Moon is Illuminated

Today's Extremes

State Highs State Lows

Community

WunderPhotos

Upload Photos

1,843,455 photos uploaded!

WunderBlogs® & News

Nearby

Air Quality

  Air Quality AQ Index Pollutant
Not available.

Snow Depth

Station Depth Elevation

Earthquake Activity

City Distance Mag. Time & Date
Minimum magnitude displayed is 2.5.

Coastal Water Temperatures

Place Temperature

Stations

Nearby Weather Stations

Station Location Temp. Windchill Dew Point Humidity Wind Precip. Elev Updated Type